Time,TemperatureF,DewpointF,PressureIn,WindDirection,WindDirectionDegrees,WindSpeedMPH,WindSpeedGustMPH,Humidity,HourlyPrecipIn,Conditions,Clouds,dailyrainin,SolarRadiationWatts/m^2,SoftwareType,DateUTC
2013-02-09 00:01:00,37.6,32.3,30.11,North,351,2.0,14.0,81,0.00,-RA,OVC,0.00,0.0,WeatherDisplay:10.37,2013-02-09 00:01:00,
2013-02-09 00:31:00,37.3,32.0,30.11,North,11,5.0,14.0,81,0.00,-RA,OVC,0.00,0.0,WeatherDisplay:10.37,2013-02-09 00:31:00,
2013-02-09 01:01:00,36.9,32.2,30.11,ENE,57,3.0,14.0,83,0.00,-RA,OVC,0.00,0.0,WeatherDisplay:10.37,2013-02-09 01:01:00,
2013-02-09 01:31:00,36.5,31.9,30.11,ENE,63,2.0,12.0,83,0.00,-RA,OVC,0.00,0.0,WeatherDisplay:10.37,2013-02-09 01:31:00,
2013-02-09 02:01:00,36.3,31.6,30.11,North,1,0.0,7.0,83,0.00,-RA,OVC,0.00,0.0,WeatherDisplay:10.37,2013-02-09 02:01:00,
2013-02-09 02:31:00,36.0,31.3,30.11,East,90,0.0,4.0,83,0.00,-RA,OVC,0.00,0.0,WeatherDisplay:10.37,2013-02-09 02:31:00,
2013-02-09 03:01:00,35.8,31.4,30.11,East,88,0.0,4.0,84,0.00,-RA,OVC,0.00,0.0,WeatherDisplay:10.37,2013-02-09 03:01:00,
2013-02-09 03:31:00,35.5,31.4,30.10,East,88,0.0,3.0,85,0.00,-RA,OVC,0.00,0.0,WeatherDisplay:10.37,2013-02-09 03:31:00,
2013-02-09 04:01:00,35.3,31.5,30.09,East,88,0.0,0.0,86,0.00,-RA,OVC,0.00,0.0,WeatherDisplay:10.37,2013-02-09 04:01:00,
2013-02-09 04:31:00,35.1,31.3,30.10,East,88,0.0,0.0,86,0.00,-RA,OVC,0.00,0.0,WeatherDisplay:10.37,2013-02-09 04:31:00,
2013-02-09 05:01:00,35.4,31.9,30.09,East,88,0.0,2.0,87,0.00,-RA,OVC,0.00,0.0,WeatherDisplay:10.37,2013-02-09 05:01:00,
2013-02-09 05:31:00,35.8,32.0,30.09,East,88,0.0,3.0,86,0.00,-RA,OVC,0.00,0.0,WeatherDisplay:10.37,2013-02-09 05:31:00,
2013-02-09 06:01:00,36.0,31.9,30.09,NNW,347,0.0,4.0,85,0.00,-RA,OVC,0.00,0.0,WeatherDisplay:10.37,2013-02-09 06:01:00,
2013-02-09 06:31:00,36.2,32.1,30.09,NNW,333,1.0,4.0,85,0.00,-RA,OVC,0.00,0.0,WeatherDisplay:10.37,2013-02-09 06:31:00,
2013-02-09 07:01:00,36.3,32.5,30.09,NW,320,0.0,4.0,86,0.00,-RA,OVC,0.00,0.0,WeatherDisplay:10.37,2013-02-09 07:01:00,
2013-02-09 07:31:00,36.6,32.8,30.08,NW,320,0.0,3.0,86,0.00,-RA,OVC,0.00,7.0,WeatherDisplay:10.37,2013-02-09 07:31:00,
2013-02-09 08:01:00,36.8,33.0,30.09,NW,309,0.0,4.0,86,0.00,-RA,OVC,0.00,14.0,WeatherDisplay:10.37,2013-02-09 08:01:00,
2013-02-09 08:31:00,37.2,33.4,30.09,WNW,302,1.0,4.0,86,0.00,-RA,OVC,0.00,65.0,WeatherDisplay:10.37,2013-02-09 08:31:00,
2013-02-09 09:01:00,37.6,34.0,30.09,NW,320,1.0,5.0,87,0.00,-RA,OVC,0.00,65.0,WeatherDisplay:10.37,2013-02-09 09:01:00,
2013-02-09 09:31:00,37.7,34.1,30.09,WNW,296,1.0,5.0,87,0.00,-RA,OVC,0.00,69.0,WeatherDisplay:10.37,2013-02-09 09:31:00,
2013-02-09 10:01:00,38.1,34.5,30.09,WNW,296,1.0,5.0,87,0.00,-RA,OVC,0.00,56.0,WeatherDisplay:10.37,2013-02-09 10:01:00,
2013-02-09 10:31:00,38.3,34.7,30.08,WNW,294,1.0,6.0,87,0.00,-RA,OVC,0.00,49.0,WeatherDisplay:10.37,2013-02-09 10:31:00,
2013-02-09 11:01:00,38.3,35.0,30.08,WNW,294,0.0,5.0,88,0.00,-RA,OVC,0.00,67.0,WeatherDisplay:10.37,2013-02-09 11:01:00,
2013-02-09 11:31:00,38.3,35.0,30.08,WNW,294,1.0,4.0,88,0.00,-RA,OVC,0.00,62.0,WeatherDisplay:10.37,2013-02-09 11:31:00,
2013-02-09 12:01:00,38.2,35.2,30.07,WNW,294,0.0,6.0,89,0.01,-RA,OVC,0.01,72.0,WeatherDisplay:10.37,2013-02-09 12:01:00,
2013-02-09 12:31:00,38.1,35.1,30.06,WNW,294,1.0,5.0,89,0.00,-RA,OVC,0.01,84.0,WeatherDisplay:10.37,2013-02-09 12:31:00,
2013-02-09 13:01:00,38.2,35.0,30.05,WNW,294,0.0,5.0,88,0.00,-RA,OVC,0.01,93.0,WeatherDisplay:10.37,2013-02-09 13:01:00,
2013-02-09 13:31:00,38.4,35.1,30.04,WNW,294,0.0,5.0,88,0.00,-RA,OVC,0.01,107.0,WeatherDisplay:10.37,2013-02-09 13:31:00,
2013-02-09 14:01:00,38.6,35.3,30.03,WNW,294,2.0,5.0,88,0.00,-RA,OVC,0.01,79.0,WeatherDisplay:10.37,2013-02-09 14:01:00,
2013-02-09 14:31:00,38.4,35.1,30.02,WNW,294,0.0,5.0,88,0.00,-RA,OVC,0.01,74.0,WeatherDisplay:10.37,2013-02-09 14:31:00,
2013-02-09 15:01:00,38.4,35.4,30.01,WNW,294,0.0,5.0,89,0.00,-RA,OVC,0.01,42.0,WeatherDisplay:10.37,2013-02-09 15:01:00,
2013-02-09 15:31:00,38.2,35.2,30.00,WNW,294,0.0,6.0,89,0.01,-RA,OVC,0.02,30.0,WeatherDisplay:10.37,2013-02-09 15:31:00,
2013-02-09 16:01:00,38.1,35.4,30.00,South,169,1.0,7.0,90,0.00,-RA,OVC,0.02,32.0,WeatherDisplay:10.37,2013-02-09 16:01:00,
2013-02-09 16:31:00,38.2,34.9,29.99,South,174,0.0,5.0,88,0.00,-RA,OVC,0.02,12.0,WeatherDisplay:10.37,2013-02-09 16:31:00,
2013-02-09 17:01:00,38.4,34.8,29.98,SW,222,0.0,7.0,87,0.00,-RA,OVC,0.02,0.0,WeatherDisplay:10.37,2013-02-09 17:01:00,
2013-02-09 17:31:00,38.4,34.8,29.98,SW,225,0.0,5.0,87,0.00,-RA,OVC,0.02,0.0,WeatherDisplay:10.37,2013-02-09 17:31:00,
2013-02-09 18:01:00,38.2,34.6,29.97,South,186,2.0,7.0,87,0.00,-RA,OVC,0.02,0.0,WeatherDisplay:10.37,2013-02-09 18:01:00,
2013-02-09 18:31:00,38.2,34.6,29.97,South,182,0.0,6.0,87,0.00,-RA,OVC,0.02,0.0,WeatherDisplay:10.37,2013-02-09 18:31:00,
2013-02-09 19:00:00,38.0,34.8,29.95,SSE,162,0.0,9.0,88,0.00,-RA,OVC,0.02,0.0,WeatherDisplay:10.37,2013-02-09 19:00:00,
2013-02-09 19:30:00,38.1,34.8,29.94,SE,145,2.0,6.0,88,0.00,-RA,OVC,0.02,0.0,WeatherDisplay:10.37,2013-02-09 19:30:00,
2013-02-09 20:00:00,37.9,34.7,29.93,South,179,1.0,7.0,88,0.00,-RA,OVC,0.02,0.0,WeatherDisplay:10.37,2013-02-09 20:00:00,
2013-02-09 20:30:00,37.9,34.6,29.92,SSE,160,3.0,7.0,88,0.00,-RA,OVC,0.02,0.0,WeatherDisplay:10.37,2013-02-09 20:30:00,
2013-02-09 21:00:00,37.8,34.5,29.91,SE,146,2.0,6.0,88,0.00,-RA,OVC,0.02,0.0,WeatherDisplay:10.37,2013-02-09 21:00:00,
2013-02-09 21:30:00,37.8,35.1,29.89,SSW,197,0.0,6.0,90,0.00,-RA,OVC,0.02,0.0,WeatherDisplay:10.37,2013-02-09 21:30:00,
2013-02-09 22:00:00,37.8,35.1,29.88,SSE,151,1.0,6.0,90,0.00,-RA,OVC,0.02,0.0,WeatherDisplay:10.37,2013-02-09 22:00:00,
2013-02-09 22:30:00,37.9,35.3,29.86,SE,146,1.0,6.0,90,0.00,-RA,OVC,0.02,0.0,WeatherDisplay:10.37,2013-02-09 22:30:00,
2013-02-09 23:00:00,38.2,35.5,29.85,SSE,150,1.0,4.0,90,0.00,-RA,OVC,0.02,0.0,WeatherDisplay:10.37,2013-02-09 23:00:00,
2013-02-09 23:30:00,38.1,35.7,29.84,SSW,193,0.0,4.0,91,0.00,-RA,OVC,0.02,0.0,WeatherDisplay:10.37,2013-02-09 23:30:00,